Time;durP1;ratioP1;P1;durP2;ratioP2;P2;SDS_P1;SDS_P2;PMS_P1;PMS_P2;Temp;Humidity;BMP_temperature;BMP_pressure;BME280_temperature;BME280_humidity;BME280_pressure;Samples;Min_cycle;Max_cycle;Signal;HPM_P1;HPM_P2
2022/08/24 00:01:57;;;;;;;4.25;3.72;;;;;;;21.91;87.91;99262.97;5067721;28;20028;-89
2022/08/24 00:04:23;;;;;;;5.03;4.55;;;;;;;21.78;88.87;99262.97;5078129;28;20760;-90
2022/08/24 00:06:48;;;;;;;2.38;2.17;;;;;;;21.33;90.57;99237.38;5075386;28;20050;-90
2022/08/24 00:09:15;;;;;;;3.20;2.25;;;;;;;21.39;91.49;99240.50;5089125;28;20123;-89
2022/08/24 00:11:40;;;;;;;3.60;2.10;;;;;;;21.31;92.08;99255.41;5071263;28;20116;-89
2022/08/24 00:14:07;;;;;;;2.92;2.65;;;;;;;21.24;93.60;99296.06;5089175;28;20065;-90
2022/08/24 00:16:34;;;;;;;4.88;3.22;;;;;;;21.23;93.06;99280.91;5071435;28;20488;-90
2022/08/24 00:19:00;;;;;;;3.67;2.70;;;;;;;21.22;93.46;99300.63;5070690;28;20031;-90
2022/08/24 00:21:25;;;;;;;3.67;3.35;;;;;;;21.31;92.26;99282.25;5089215;28;20093;-90
2022/08/24 00:23:52;;;;;;;4.68;3.58;;;;;;;21.27;91.52;99263.66;5089693;28;20063;-91
2022/08/24 00:26:17;;;;;;;5.47;4.05;;;;;;;21.56;89.83;99286.84;5088549;28;20028;-91
2022/08/24 00:28:43;;;;;;;3.72;3.33;;;;;;;21.42;90.09;99266.28;5070293;28;20050;-88
2022/08/24 00:31:09;;;;;;;2.88;2.45;;;;;;;21.48;89.78;99278.44;5089526;28;20430;-91
2022/08/24 00:33:35;;;;;;;2.53;2.35;;;;;;;21.29;89.98;99271.63;5089406;28;20047;-92
2022/08/24 00:36:00;;;;;;;3.22;2.25;;;;;;;21.39;90.68;99283.44;5071055;28;20032;-91
2022/08/24 00:38:28;;;;;;;5.63;3.90;;;;;;;21.41;89.96;99286.88;5070870;28;20062;-91
2022/08/24 00:40:53;;;;;;;2.67;1.90;;;;;;;21.23;90.30;99282.75;5070765;28;20031;-90
2022/08/24 00:43:22;;;;;;;3.58;2.08;;;;;;;21.06;90.52;99275.81;5088819;28;20032;-92
2022/08/24 00:46:09;;;;;;;6.05;4.25;;;;;;;20.95;90.09;99273.81;5089203;28;20030;-90
2022/08/24 00:48:41;;;;;;;2.88;2.42;;;;;;;20.99;89.27;99270.00;5068466;28;20115;-92
2022/08/24 00:51:26;;;;;;;3.65;2.58;;;;;;;21.20;88.86;99313.28;5070611;28;20028;-91
2022/08/24 00:54:07;;;;;;;4.70;3.33;;;;;;;21.01;88.82;99302.91;5067557;28;20028;-91
2022/08/24 00:56:44;;;;;;;8.80;2.42;;;;;;;21.16;87.73;99311.75;5080489;28;20051;-91
2022/08/24 00:59:15;;;;;;;1.75;1.65;;;;;;;21.23;87.39;99322.97;5091503;28;20043;-90
2022/08/24 01:01:43;;;;;;;2.30;2.10;;;;;;;21.18;87.97;99323.28;5076362;28;20032;-89
2022/08/24 01:04:14;;;;;;;4.00;2.88;;;;;;;21.04;87.15;99277.72;5079738;28;20051;-90
2022/08/24 01:06:40;;;;;;;4.25;2.83;;;;;;;21.25;86.49;99295.06;5082401;28;20033;-89
2022/08/24 01:09:06;;;;;;;2.70;2.40;;;;;;;21.43;86.08;99319.84;5076420;28;20703;-89
2022/08/24 01:11:32;;;;;;;4.60;3.05;;;;;;;21.45;85.22;99307.16;5080012;28;20028;-88
2022/08/24 01:13:59;;;;;;;3.88;2.28;;;;;;;21.44;85.43;99313.53;5096588;28;20036;-89
2022/08/24 01:19:34;;;;;;;7.22;2.65;;;;;;;21.39;84.26;99279.91;5069306;28;20539;-89
2022/08/24 01:22:02;;;;;;;4.35;2.72;;;;;;;21.71;84.30;99347.56;5075553;28;20063;-89
2022/08/24 01:24:28;;;;;;;3.60;3.30;;;;;;;21.17;85.39;99296.56;5067304;28;20165;-89
2022/08/24 01:26:53;;;;;;;6.30;3.05;;;;;;;21.22;85.87;99326.59;5070949;28;20025;-90
2022/08/24 01:29:24;;;;;;;4.13;3.40;;;;;;;21.12;85.98;99310.25;5089018;28;20036;-88
2022/08/24 01:31:50;;;;;;;1.92;1.70;;;;;;;21.26;85.72;99315.56;5089018;28;20024;-88
2022/08/24 01:34:15;;;;;;;1.50;1.35;;;;;;;21.51;85.17;99337.28;5087997;28;20063;-89
2022/08/24 01:36:45;;;;;;;1.70;1.60;;;;;;;21.63;84.75;99345.38;5089208;28;20028;-89
2022/08/24 01:39:23;;;;;;;2.72;2.47;;;;;;;21.50;83.98;99303.38;5050653;28;20071;-89
2022/08/24 01:41:49;;;;;;;5.28;3.22;;;;;;;21.70;83.63;99336.94;5068601;28;20040;-88
2022/08/24 01:44:15;;;;;;;8.77;4.05;;;;;;;21.90;83.29;99351.69;5084093;28;20059;-89
2022/08/24 01:46:44;;;;;;;7.43;2.50;;;;;;;21.79;83.71;99360.47;5088466;28;20107;-89
2022/08/24 01:49:11;;;;;;;5.13;4.25;;;;;;;21.81;83.32;99353.16;5070929;28;20033;-90
2022/08/24 01:51:36;;;;;;;3.63;2.63;;;;;;;21.78;83.26;99345.31;5088338;28;20048;-90
2022/08/24 01:54:04;;;;;;;2.78;2.53;;;;;;;21.92;82.75;99353.31;5087714;28;20131;-89
2022/08/24 01:56:31;;;;;;;3.92;3.42;;;;;;;21.91;82.20;99340.84;5069349;28;20093;-89
2022/08/24 01:58:57;;;;;;;2.45;2.15;;;;;;;21.80;81.65;99314.72;5088125;28;20151;-89
2022/08/24 02:01:24;;;;;;;3.50;2.55;;;;;;;21.74;81.63;99317.81;5065187;28;20065;-89
2022/08/24 02:03:50;;;;;;;4.13;3.70;;;;;;;21.90;81.78;99349.84;5049712;28;20482;-90
2022/08/24 02:06:17;;;;;;;3.33;2.50;;;;;;;21.69;81.74;99319.97;5049644;28;20020;-89
2022/08/24 02:08:42;;;;;;;1.63;1.52;;;;;;;21.63;81.84;99321.22;5065207;28;20036;-89
2022/08/24 02:11:08;;;;;;;4.30;3.53;;;;;;;21.80;81.96;99343.41;5087144;28;20093;-89
2022/08/24 02:13:36;;;;;;;3.35;3.05;;;;;;;21.47;82.03;99296.34;5086635;28;20105;-89
2022/08/24 02:16:01;;;;;;;4.70;3.75;;;;;;;21.90;82.13;99363.28;5088287;28;20035;-87
2022/08/24 02:18:27;;;;;;;4.97;1.98;;;;;;;21.72;82.82;99351.09;5077306;28;20804;-88
2022/08/24 02:20:52;;;;;;;3.80;3.42;;;;;;;21.78;82.90;99350.69;5087519;28;20028;-88
2022/08/24 02:23:19;;;;;;;4.25;3.67;;;;;;;21.67;82.62;99316.50;5087915;28;20039;-88
2022/08/24 02:25:45;;;;;;;4.90;3.22;;;;;;;21.72;83.31;99343.91;5069645;28;20180;-89
2022/08/24 02:28:12;;;;;;;2.55;2.17;;;;;;;21.48;83.55;99316.00;5078194;28;20123;-89
2022/08/24 02:30:39;;;;;;;3.53;3.20;;;;;;;21.72;82.96;99353.78;5069458;28;20028;-91
2022/08/24 02:33:06;;;;;;;2.72;2.28;;;;;;;21.37;83.87;99324.75;5087553;28;20028;-90
2022/08/24 02:35:31;;;;;;;2.78;2.35;;;;;;;21.57;83.50;99361.88;5087573;28;20071;-88
2022/08/24 02:37:57;;;;;;;2.45;2.15;;;;;;;21.49;83.32;99337.41;5087358;28;20062;-88
2022/08/24 02:40:23;;;;;;;5.65;5.07;;;;;;;21.54;83.00;99366.59;5087478;28;20036;-89
2022/08/24 02:42:49;;;;;;;1.60;1.50;;;;;;;21.14;82.76;99311.00;5087788;28;20047;-88
2022/08/24 02:45:15;;;;;;;3.42;2.50;;;;;;;21.53;82.75;99368.41;5069144;28;20067;-89
2022/08/24 02:47:40;;;;;;;3.70;2.38;;;;;;;21.38;82.33;99354.16;5086875;28;20034;-89
2022/08/24 02:50:10;;;;;;;4.22;3.58;;;;;;;21.21;82.34;99328.44;5087036;28;20069;-88
2022/08/24 02:52:38;;;;;;;4.15;3.28;;;;;;;21.19;83.26;99354.47;5087159;28;20031;-89
2022/08/24 02:55:06;;;;;;;4.40;2.63;;;;;;;21.20;83.14;99356.22;5068580;28;20608;-90
2022/08/24 02:57:31;;;;;;;5.57;3.90;;;;;;;21.00;83.01;99340.53;5068515;28;20561;-88
2022/08/24 02:59:57;;;;;;;3.67;2.28;;;;;;;21.25;83.56;99390.78;5086889;28;20074;-88
2022/08/24 03:02:23;;;;;;;2.58;2.33;;;;;;;21.17;83.24;99367.13;5049468;28;20514;-85
2022/08/24 03:04:48;;;;;;;2.70;2.38;;;;;;;21.39;82.67;99384.53;5078194;28;20048;-84
2022/08/24 03:07:14;;;;;;;3.40;3.00;;;;;;;21.17;82.97;99372.50;5086190;28;20031;-85
2022/08/24 03:09:39;;;;;;;6.70;3.70;;;;;;;21.33;82.71;99396.50;5067989;28;20515;-84
2022/08/24 03:12:05;;;;;;;5.30;2.72;;;;;;;21.24;82.34;99371.16;5087035;28;20089;-85
2022/08/24 03:14:30;;;;;;;6.13;3.70;;;;;;;21.35;81.83;99367.78;5086449;28;20576;-85
2022/08/24 03:16:56;;;;;;;3.33;2.60;;;;;;;21.29;81.72;99368.16;5086967;28;20036;-86
2022/08/24 03:19:21;;;;;;;2.53;2.33;;;;;;;21.41;81.96;99393.31;5073535;28;20035;-86
2022/08/24 03:21:47;;;;;;;2.70;2.50;;;;;;;20.98;82.62;99337.13;5066557;28;20063;-85
2022/08/24 03:24:13;;;;;;;3.58;2.85;;;;;;;21.14;82.72;99374.53;5072955;28;20089;-86
2022/08/24 03:26:39;;;;;;;3.20;2.45;;;;;;;21.00;83.51;99359.31;5079403;28;20101;-85
2022/08/24 03:29:05;;;;;;;3.20;2.90;;;;;;;21.04;83.12;99369.75;5067951;28;20460;-88
2022/08/24 03:31:31;;;;;;;3.13;2.25;;;;;;;21.09;83.48;99380.19;5085217;28;20050;-88
2022/08/24 03:33:56;;;;;;;3.72;2.92;;;;;;;20.96;83.59;99373.84;5068471;28;20040;-89
2022/08/24 03:36:22;;;;;;;4.35;3.60;;;;;;;21.01;82.36;99398.59;5086731;28;20081;-90
2022/08/24 03:38:47;;;;;;;2.22;2.08;;;;;;;20.90;82.72;99380.50;5086066;28;20039;-89
2022/08/24 03:41:13;;;;;;;1.92;1.77;;;;;;;20.74;84.17;99400.22;5085810;28;20131;-88
2022/08/24 03:43:45;;;;;;;12.35;3.90;;;;;;;20.74;83.48;99369.84;5086150;28;21092;-90
2022/08/24 03:46:12;;;;;;;2.30;1.70;;;;;;;20.73;83.84;99357.41;5086546;28;20096;-88
2022/08/24 03:48:39;;;;;;;2.63;2.42;;;;;;;20.71;83.86;99353.94;5086270;28;20040;-90
2022/08/24 03:51:15;;;;;;;3.03;2.70;;;;;;;20.88;83.88;99385.06;5068497;28;20073;-88
2022/08/24 03:53:41;;;;;;;4.22;3.10;;;;;;;20.64;84.54;99353.44;5085375;28;20122;-87
2022/08/24 03:56:08;;;;;;;2.10;1.90;;;;;;;20.67;84.16;99344.41;5083282;28;20119;-86
2022/08/24 03:58:35;;;;;;;3.25;2.90;;;;;;;20.82;84.82;99386.34;5086439;28;20532;-85
2022/08/24 04:01:02;;;;;;;2.90;2.13;;;;;;;20.80;85.24;99400.78;5085851;28;20044;-87
2022/08/24 04:03:28;;;;;;;3.42;2.40;;;;;;;20.73;85.23;99385.06;5081784;28;20044;-90
2022/08/24 04:05:53;;;;;;;4.35;3.92;;;;;;;20.89;84.99;99400.19;5057099;28;20048;-90
2022/08/24 04:08:19;;;;;;;2.72;2.53;;;;;;;20.67;84.53;99366.69;5059239;28;20827;-90
2022/08/24 04:10:46;;;;;;;4.85;4.38;;;;;;;20.78;85.35;99379.44;5064048;28;20036;-91
2022/08/24 04:13:12;;;;;;;5.20;3.13;;;;;;;21.17;84.59;99417.25;5084430;28;20549;-90
2022/08/24 04:15:42;;;;;;;2.17;1.90;;;;;;;21.19;84.33;99401.91;5067567;28;20036;-88
2022/08/24 04:18:08;;;;;;;2.92;2.55;;;;;;;21.14;84.53;99380.72;5086709;28;20028;-92
2022/08/24 04:20:39;;;;;;;3.53;2.90;;;;;;;21.32;84.22;99393.91;5068684;28;20045;-92
2022/08/24 04:23:06;;;;;;;2.92;2.33;;;;;;;21.36;83.75;99398.13;5070671;28;20087;-90
2022/08/24 04:25:39;;;;;;;2.10;1.90;;;;;;;21.21;83.78;99363.31;5052392;28;20044;-89
2022/08/24 04:28:05;;;;;;;5.22;2.45;;;;;;;21.43;84.08;99402.16;5061332;28;20035;-91
2022/08/24 04:30:31;;;;;;;2.58;2.38;;;;;;;21.41;83.82;99378.09;5084412;28;20029;-90
2022/08/24 04:32:57;;;;;;;3.78;3.33;;;;;;;21.50;84.12;99389.22;5080104;28;20081;-87
2022/08/24 04:35:22;;;;;;;3.42;3.13;;;;;;;21.68;83.68;99405.97;5089815;28;20036;-88
2022/08/24 04:37:48;;;;;;;3.97;3.63;;;;;;;21.56;83.94;99392.34;5088673;28;20181;-92
2022/08/24 04:40:14;;;;;;;3.72;1.92;;;;;;;21.44;84.02;99368.97;5063440;28;20036;-93
2022/08/24 04:42:41;;;;;;;8.43;5.35;;;;;;;21.62;84.29;99389.28;5087852;28;20220;-91
2022/08/24 04:45:07;;;;;;;3.70;3.35;;;;;;;21.44;84.82;99375.22;5068538;28;20453;-92
2022/08/24 04:47:32;;;;;;;2.95;2.75;;;;;;;21.41;84.97;99353.09;5066731;28;20097;-95
2022/08/24 04:49:59;;;;;;;5.38;4.85;;;;;;;21.24;84.64;99309.47;5091492;28;20451;-93
2022/08/24 04:52:24;;;;;;;3.38;3.08;;;;;;;21.53;84.29;99357.69;5091842;28;20020;-95
2022/08/24 04:54:50;;;;;;;5.80;4.40;;;;;;;21.61;84.97;99349.13;5072852;28;20097;-92
2022/08/24 04:57:15;;;;;;;3.03;2.75;;;;;;;21.36;86.14;99356.06;5092637;28;20035;-92
2022/08/24 04:59:42;;;;;;;4.32;3.95;;;;;;;21.30;87.60;99369.88;5073941;28;20035;-91
2022/08/24 05:02:08;;;;;;;4.50;4.10;;;;;;;21.21;89.03;99374.03;5070192;28;20032;-91
2022/08/24 05:04:33;;;;;;;4.07;3.78;;;;;;;21.32;88.99;99380.50;5072295;28;20074;-92
2022/08/24 05:06:59;;;;;;;5.05;4.07;;;;;;;21.26;87.92;99355.81;5090873;28;20032;-94
2022/08/24 05:09:26;;;;;;;2.35;1.90;;;;;;;21.08;89.27;99349.81;5061624;28;20032;-94
2022/08/24 05:11:54;;;;;;;6.15;4.60;;;;;;;21.36;89.54;99393.63;5092628;28;20811;-93
2022/08/24 05:14:19;;;;;;;4.18;3.53;;;;;;;21.68;88.71;99414.88;5075886;28;20039;-95
2022/08/24 05:16:45;;;;;;;6.25;4.47;;;;;;;21.34;88.22;99366.03;5072163;28;20025;-96
2022/08/24 05:19:12;;;;;;;4.65;4.15;;;;;;;21.56;88.04;99356.63;5073018;28;20040;-94
2022/08/24 05:21:38;;;;;;;9.90;2.78;;;;;;;22.06;86.48;99376.56;5072462;28;20081;-93
2022/08/24 05:24:04;;;;;;;3.10;2.47;;;;;;;22.43;85.02;99417.06;5069409;28;20036;-95
2022/08/24 05:26:32;;;;;;;3.95;3.40;;;;;;;22.41;85.06;99415.44;5057326;28;20058;-96
2022/08/24 05:29:01;;;;;;;3.25;2.92;;;;;;;22.22;85.30;99395.16;5070177;28;20119;-93
2022/08/24 05:31:30;;;;;;;3.85;3.30;;;;;;;22.33;84.82;99400.69;5087080;28;20043;-92
2022/08/24 05:33:57;;;;;;;4.32;3.42;;;;;;;22.59;83.96;99395.34;5084179;28;20028;-95
2022/08/24 05:36:25;;;;;;;3.67;3.35;;;;;;;22.49;83.54;99356.63;5062811;28;20482;-95
2022/08/24 05:38:53;;;;;;;4.15;3.55;;;;;;;22.88;82.73;99389.75;5061645;28;20032;-90
2022/08/24 05:41:20;;;;;;;3.58;3.03;;;;;;;23.02;82.37;99391.47;5070650;28;20020;-92
2022/08/24 05:43:46;;;;;;;6.35;5.78;;;;;;;23.44;80.39;99402.81;5086320;28;20055;-90
2022/08/24 05:46:13;;;;;;;5.95;4.68;;;;;;;23.83;78.98;99448.44;5075203;28;20040;-91
2022/08/24 05:48:39;;;;;;;4.45;3.42;;;;;;;23.35;78.37;99388.19;5086086;28;20020;-94
2022/08/24 05:51:05;;;;;;;4.40;3.72;;;;;;;;;;5070297;28;20032;-91
2022/08/24 05:53:31;;;;;;;5.85;4.43;;;;;;;23.77;77.13;99421.00;5087067;28;20024;-94
2022/08/24 05:55:57;;;;;;;4.70;4.07;;;;;;;23.94;77.51;99421.59;5076670;28;20585;-93
2022/08/24 05:58:23;;;;;;;4.57;4.18;;;;;;;23.70;77.96;99387.44;5069188;28;20131;-92
2022/08/24 06:00:49;;;;;;;4.70;3.05;;;;;;;23.83;78.25;99413.44;5055131;28;20391;-93
2022/08/24 06:03:15;;;;;;;4.22;3.00;;;;;;;24.06;78.81;99425.22;5088585;28;20036;-94
2022/08/24 06:05:41;;;;;;;3.85;2.53;;;;;;;23.93;78.35;99377.66;5061217;28;20040;-92
2022/08/24 06:08:08;;;;;;;4.18;3.33;;;;;;;24.25;77.30;99413.88;5067670;28;20539;-93
2022/08/24 06:10:46;;;;;;;3.53;3.22;;;;;;;23.99;76.23;99379.03;5055208;28;20127;-93
2022/08/24 06:13:11;;;;;;;3.40;2.28;;;;;;;24.06;76.14;99379.41;5050260;28;20119;-92
2022/08/24 06:15:38;;;;;;;4.22;3.58;;;;;;;24.09;76.34;99392.66;5053064;28;20143;-93
2022/08/24 06:18:04;;;;;;;3.65;3.35;;;;;;;24.02;76.54;99394.97;5070633;28;20036;-93
2022/08/24 06:20:31;;;;;;;6.00;4.60;;;;;;;24.04;76.13;99370.59;5078980;28;20044;-92
2022/08/24 06:22:56;;;;;;;5.78;4.20;;;;;;;23.92;78.36;99375.94;5065900;28;20048;-92
2022/08/24 06:28:06;;;;;;;5.55;3.22;;;;;;;24.45;75.46;99421.31;5067324;28;20039;-92
2022/08/24 06:30:32;;;;;;;3.08;2.78;;;;;;;24.40;74.75;99387.59;5054442;28;20056;-92
2022/08/24 06:33:02;;;;;;;4.47;3.42;;;;;;;24.59;74.14;99397.84;5087504;28;20800;-92
2022/08/24 06:35:27;;;;;;;6.15;4.20;;;;;;;25.04;73.12;99432.97;5065662;28;20414;-91
2022/08/24 06:37:53;;;;;;;3.53;3.22;;;;;;;24.75;72.77;99384.88;5087237;28;20035;-92
2022/08/24 06:40:19;;;;;;;5.75;2.25;;;;;;;24.63;72.73;99373.22;5068845;28;20028;-92
2022/08/24 06:42:45;;;;;;;12.70;3.15;;;;;;;24.75;73.83;99411.00;5078253;28;20494;-93
2022/08/24 06:45:11;;;;;;;3.30;3.00;;;;;;;24.67;74.05;99393.56;5065498;28;20497;-92
2022/08/24 06:47:37;;;;;;;14.63;4.95;;;;;;;24.55;72.98;99386.41;5058270;28;20151;-93
2022/08/24 06:50:05;;;;;;;4.30;3.67;;;;;;;24.37;73.41;99414.78;5065948;28;20032;-93
2022/08/24 06:52:31;;;;;;;7.07;4.18;;;;;;;24.38;74.56;99370.69;5068722;28;20040;-93
2022/08/24 06:54:57;;;;;;;6.47;4.78;;;;;;;24.56;75.47;99408.84;5085849;28;20036;-92
2022/08/24 06:57:22;;;;;;;5.07;2.42;;;;;;;24.63;74.32;99386.69;5067482;28;20043;-93
2022/08/24 06:59:48;;;;;;;3.70;2.45;;;;;;;24.98;74.54;99411.88;5065628;28;20036;-93
2022/08/24 07:02:17;;;;;;;2.30;2.08;;;;;;;25.12;73.44;99413.47;5048878;28;20686;-93
2022/08/24 07:04:43;;;;;;;3.67;1.67;;;;;;;25.30;70.87;99403.06;5048962;28;20159;-91
2022/08/24 07:07:08;;;;;;;5.05;3.95;;;;;;;25.34;69.70;99382.94;5049127;28;20123;-93
2022/08/24 07:09:35;;;;;;;3.30;2.50;;;;;;;25.35;71.01;99409.81;5049287;28;20051;-93
2022/08/24 07:12:00;;;;;;;4.90;2.10;;;;;;;25.26;70.03;99391.63;5066900;28;20399;-91
2022/08/24 07:14:26;;;;;;;1.52;1.42;;;;;;;25.14;68.66;99420.44;5066269;28;20110;-92
2022/08/24 07:16:52;;;;;;;4.75;3.13;;;;;;;25.20;70.19;99384.88;5066571;28;20055;-91
2022/08/24 07:19:18;;;;;;;2.05;1.85;;;;;;;25.19;69.86;99393.97;5066051;28;20033;-93
2022/08/24 07:21:44;;;;;;;3.72;2.65;;;;;;;25.03;67.67;99370.03;5068926;28;20060;-94
2022/08/24 07:24:10;;;;;;;3.42;1.95;;;;;;;25.15;68.55;99405.13;5069406;28;20063;-93
2022/08/24 07:26:38;;;;;;;5.75;2.58;;;;;;;25.05;66.68;99396.06;5051285;28;20032;-94
2022/08/24 07:29:08;;;;;;;2.63;2.15;;;;;;;25.38;66.32;99397.91;5077013;28;20031;-93
2022/08/24 07:31:38;;;;;;;2.83;2.05;;;;;;;25.12;64.85;99371.16;5070189;28;20032;-92
2022/08/24 07:34:06;;;;;;;3.58;2.67;;;;;;;25.23;63.56;99385.63;5070007;28;20031;-94
2022/08/24 07:36:32;;;;;;;5.30;3.10;;;;;;;25.33;64.47;99373.09;5071018;28;20062;-95
2022/08/24 07:38:59;;;;;;;2.40;1.58;;;;;;;25.39;64.90;99356.41;5070098;28;20413;-92
2022/08/24 07:44:45;;;;;;;2.97;2.40;;;;;;;25.35;62.79;99380.09;5085201;28;20166;-92
2022/08/24 07:47:10;;;;;;;3.35;3.05;;;;;;;25.38;62.60;99379.00;5087777;28;20039;-94
2022/08/24 07:49:36;;;;;;;2.65;2.03;;;;;;;25.56;63.47;99392.81;5086749;28;20582;-89
2022/08/24 07:52:02;;;;;;;2.22;1.63;;;;;;;25.33;63.74;99362.31;5086685;28;20523;-89
2022/08/24 07:54:27;;;;;;;2.58;1.52;;;;;;;25.48;63.52;99362.91;5088918;28;20529;-91
2022/08/24 07:56:54;;;;;;;1.95;1.38;;;;;;;25.72;61.85;99381.63;5071529;28;20024;-90
2022/08/24 07:59:19;;;;;;;6.45;3.30;;;;;;;25.58;61.59;99390.88;5071904;28;20036;-90
2022/08/24 08:01:45;;;;;;;3.70;3.38;;;;;;;25.27;62.77;99366.34;5090301;28;20038;-91
2022/08/24 08:04:12;;;;;;;5.20;2.67;;;;;;;25.43;62.47;99384.03;5089593;28;20052;-90
2022/08/24 08:06:40;;;;;;;1.85;1.58;;;;;;;25.29;62.44;99363.56;5071833;28;20532;-90
2022/08/24 08:09:06;;;;;;;2.80;2.45;;;;;;;25.07;61.85;99373.38;5071413;28;20028;-89
2022/08/24 08:11:32;;;;;;;3.30;3.00;;;;;;;25.21;62.27;99377.66;5071500;28;20059;-90
2022/08/24 08:13:57;;;;;;;5.28;2.15;;;;;;;25.10;63.00;99361.44;5089594;28;20098;-89
2022/08/24 08:16:23;;;;;;;4.00;1.58;;;;;;;25.15;63.14;99364.66;5071319;28;20483;-90
2022/08/24 08:18:48;;;;;;;2.15;1.95;;;;;;;25.58;61.38;99420.56;5089795;28;20042;-90
2022/08/24 08:24:16;;;;;;;3.13;2.03;;;;;;;25.71;61.28;99420.41;5089999;28;20182;-89
2022/08/24 08:26:50;;;;;;;1.67;1.50;;;;;;;25.95;61.38;99430.16;5071557;28;20039;-90
2022/08/24 08:29:18;;;;;;;2.40;1.42;;;;;;;26.13;61.58;99398.94;5087935;28;20081;-89
2022/08/24 08:31:44;;;;;;;3.03;2.22;;;;;;;25.91;61.85;99364.72;5088048;28;20822;-90
2022/08/24 08:34:11;;;;;;;2.05;1.65;;;;;;;26.56;60.91;99421.44;5089503;28;20027;-89
2022/08/24 08:36:39;;;;;;;3.47;2.67;;;;;;;26.15;59.57;99374.47;5071009;28;20096;-89
2022/08/24 08:39:09;;;;;;;3.13;2.83;;;;;;;26.22;59.93;99379.22;5071168;28;20493;-89
2022/08/24 08:41:53;;;;;;;4.38;2.88;;;;;;;26.88;57.49;99431.34;5089223;28;20032;-89
2022/08/24 08:44:36;;;;;;;5.10;2.42;;;;;;;26.51;59.17;99383.97;5089534;28;20490;-89
2022/08/24 08:47:32;;;;;;;3.30;2.60;;;;;;;27.11;57.79;99424.78;5071208;28;20031;-90
2022/08/24 08:50:10;;;;;;;1.73;1.63;;;;;;;27.24;55.28;99418.28;5089652;28;20409;-90
2022/08/24 08:53:06;;;;;;;2.10;1.90;;;;;;;27.28;56.86;99370.97;5070617;28;20064;-89
2022/08/24 08:55:57;;;;;;;2.40;1.92;;;;;;;28.02;58.94;99407.66;5088695;28;20233;-90
2022/08/24 08:58:36;;;;;;;1.63;1.45;;;;;;;27.92;57.61;99348.00;5070884;28;20024;-90
2022/08/24 09:01:22;;;;;;;2.28;2.10;;;;;;;28.07;53.58;99347.59;5088626;28;20638;-90
2022/08/24 09:03:57;;;;;;;2.65;2.40;;;;;;;27.93;53.67;99411.16;5088575;28;20139;-90
2022/08/24 09:06:53;;;;;;;2.33;1.60;;;;;;;28.20;55.44;99414.06;5088708;28;20036;-88
2022/08/24 09:09:44;;;;;;;3.53;2.47;;;;;;;28.45;54.66;99409.06;5086655;28;20035;-90
2022/08/24 09:12:59;;;;;;;2.00;1.30;;;;;;;28.08;52.40;99347.44;5067495;28;20063;-92
2022/08/24 09:16:02;;;;;;;2.67;1.25;;;;;;;28.42;52.91;99412.06;5042885;28;20101;-91
2022/08/24 09:18:37;;;;;;;2.90;1.75;;;;;;;28.72;53.75;99418.34;5071793;28;20040;-91
2022/08/24 09:21:47;;;;;;;2.95;2.08;;;;;;;28.67;54.45;99388.94;5064237;28;20461;-92
2022/08/24 09:24:42;;;;;;;;;;;;;;;;;;;;;
2022/08/24 09:27:48;;;;;;;2.50;1.65;;;;;;;28.80;50.98;99423.88;5078908;28;20045;-93
2022/08/24 09:30:17;;;;;;;4.32;2.00;;;;;;;28.49;53.99;99361.66;5082990;28;20039;-90
2022/08/24 09:33:10;;;;;;;2.20;1.40;;;;;;;29.21;50.99;99407.31;5058026;28;20490;-90
2022/08/24 09:36:04;;;;;;;2.45;2.10;;;;;;;28.25;52.29;99347.72;5075670;28;20068;-93
2022/08/24 09:38:58;;;;;;;2.08;1.40;;;;;;;29.04;50.07;99393.53;5072700;28;20047;-91
2022/08/24 09:42:07;;;;;;;2.70;1.63;;;;;;;28.72;52.85;99364.06;5066448;28;20032;-92
2022/08/24 09:45:01;;;;;;;6.07;3.90;;;;;;;28.92;53.72;99370.28;5068514;28;20036;-94
2022/08/24 09:47:27;;;;;;;;;;;;;;;29.05;50.23;99375.38;5080230;28;20031;-90
2022/08/24 09:50:11;;;;;;;1.40;1.27;;;;;;;29.21;52.41;99363.88;5087123;28;20592;-91
2022/08/24 09:52:45;;;;;;;1.53;1.43;;;;;;;29.13;52.57;99361.03;5082756;28;20072;-88
2022/08/24 09:55:27;;;;;;;2.17;1.77;;;;;;;29.32;49.65;99360.97;5066616;28;20036;-89
2022/08/24 09:58:11;;;;;;;4.35;2.17;;;;;;;29.80;50.25;99348.09;5066011;28;20125;-92
2022/08/24 10:01:10;;;;;;;6.28;1.90;;;;;;;29.37;50.45;99279.03;5066772;28;20486;-92
2022/08/24 10:03:57;;;;;;;2.03;1.48;;;;;;;29.63;46.76;99339.75;5067492;28;20043;-93
2022/08/24 10:06:35;;;;;;;6.53;1.17;;;;;;;28.91;48.73;99279.00;5067786;28;20521;-92
2022/08/24 10:09:13;;;;;;;2.13;1.65;;;;;;;28.96;47.59;99252.25;5065840;28;20036;-93
2022/08/24 10:12:14;;;;;;;2.10;1.30;;;;;;;29.60;50.77;99334.63;5067475;28;20508;-92
2022/08/24 10:15:09;;;;;;;3.03;1.70;;;;;;;29.93;49.28;99340.38;5067350;28;20137;-93
2022/08/24 10:17:50;;;;;;;2.70;1.90;;;;;;;29.92;47.44;99329.66;5065675;28;20403;-92
2022/08/24 10:20:27;;;;;;;1.58;1.17;;;;;;;29.57;50.75;99261.56;5049227;28;20059;-93
2022/08/24 10:23:23;;;;;;;1.30;1.20;;;;;;;30.28;47.89;99329.63;5049456;28;20032;-93
2022/08/24 10:25:59;;;;;;;1.17;0.95;;;;;;;29.79;48.45;99246.63;5066915;28;20028;-92
2022/08/24 10:28:25;;;;;;;1.40;1.13;;;;;;;30.71;46.88;99327.91;5049404;28;20039;-93
2022/08/24 10:30:59;;;;;;;1.98;1.13;;;;;;;30.62;43.10;99247.22;5067405;28;20033;-91
2022/08/24 10:33:32;;;;;;;4.32;2.47;;;;;;;30.71;41.74;99240.81;5049093;28;20127;-92
2022/08/24 10:36:16;;;;;;;2.28;1.70;;;;;;;30.51;47.29;99251.94;5049027;28;20062;-93
2022/08/24 10:41:41;;;;;;;1.98;1.67;;;;;;;30.99;42.77;99300.50;5066689;28;20111;-92
2022/08/24 10:44:19;;;;;;;7.05;3.13;;;;;;;31.60;40.92;99317.53;5049278;28;20039;-93
2022/08/24 10:46:59;;;;;;;0.82;0.65;;;;;;;31.27;41.38;99256.66;5048944;28;20032;-94
2022/08/24 10:49:36;;;;;;;3.13;1.98;;;;;;;31.56;44.21;99314.31;5067157;28;20033;-94
2022/08/24 10:52:07;;;;;;;4.80;2.30;;;;;;;31.31;42.45;99290.72;5049589;28;20040;-90
2022/08/24 10:54:35;;;;;;;1.38;1.15;;;;;;;31.13;41.83;99259.00;5067163;28;20040;-88
2022/08/24 10:57:19;;;;;;;7.10;1.23;;;;;;;30.94;43.47;99259.25;5063621;28;20036;-90
2022/08/24 11:00:13;;;;;;;3.13;1.80;;;;;;;30.66;46.97;99246.75;5064919;28;20032;-90
2022/08/24 11:02:45;;;;;;;0.75;0.73;;;;;;;30.92;44.06;99293.97;5048046;28;20028;-93
2022/08/24 11:05:34;;;;;;;2.58;1.48;;;;;;;30.82;42.38;99270.44;5064493;28;20396;-90
2022/08/24 11:08:04;;;;;;;3.33;1.65;;;;;;;30.93;44.82;99258.41;5066057;28;20029;-91
2022/08/24 11:10:39;;;;;;;1.40;1.13;;;;;;;30.54;42.05;99237.16;5066353;28;20059;-91
2022/08/24 11:13:16;;;;;;;1.55;1.17;;;;;;;30.98;40.94;99291.47;5048056;28;20035;-90
2022/08/24 11:15:56;;;;;;;1.70;1.02;;;;;;;31.00;41.51;99253.16;5047959;28;20060;-89
2022/08/24 11:18:22;;;;;;;1.83;0.77;;;;;;;30.76;42.63;99237.59;5048280;28;20434;-91
2022/08/24 11:20:51;;;;;;;2.70;1.88;;;;;;;30.68;41.72;99232.97;5066588;28;20037;-89
2022/08/24 11:23:27;;;;;;;0.85;0.73;;;;;;;30.82;42.50;99239.66;5066667;28;20525;-91
2022/08/24 11:26:11;;;;;;;2.17;1.75;;;;;;;31.06;42.54;99269.72;5066549;28;20081;-89
2022/08/24 11:28:39;;;;;;;1.33;1.23;;;;;;;31.26;41.36;99246.78;5068302;28;20067;-88
2022/08/24 11:31:11;;;;;;;3.42;2.17;;;;;;;31.29;43.78;99241.00;5069260;28;20032;-89
2022/08/24 11:34:02;;;;;;;2.80;2.05;;;;;;;31.29;42.22;99251.88;5052301;28;20522;-92
2022/08/24 11:36:33;;;;;;;2.95;1.98;;;;;;;31.08;41.45;99195.16;5070743;28;20040;-89
2022/08/24 11:39:22;;;;;;;3.60;1.25;;;;;;;31.64;44.78;99258.94;5070231;28;20032;-89
2022/08/24 11:42:17;;;;;;;1.15;0.93;;;;;;;31.50;44.83;99263.16;5068385;28;20070;-90
2022/08/24 11:44:53;;;;;;;10.13;1.77;;;;;;;31.49;43.67;99268.78;5052243;28;20036;-89
2022/08/24 11:47:43;;;;;;;5.53;1.20;;;;;;;31.17;44.12;99271.28;5070282;28;20040;-91
2022/08/24 11:50:26;;;;;;;2.92;1.67;;;;;;;31.20;43.20;99251.88;5069917;28;20036;-91
2022/08/24 11:53:36;;;;;;;3.25;2.17;;;;;;;31.27;42.98;99262.13;5069945;28;20021;-91
2022/08/24 11:56:25;;;;;;;1.88;1.30;;;;;;;31.48;46.30;99267.94;5051653;28;20043;-91
2022/08/24 11:59:28;;;;;;;1.35;0.98;;;;;;;31.37;41.31;99260.06;5068779;28;20028;-92
2022/08/24 12:02:03;;;;;;;2.20;1.15;;;;;;;31.00;44.73;99185.09;5052268;28;20020;-92
2022/08/24 12:04:54;;;;;;;3.35;1.80;;;;;;;31.63;43.89;99234.59;5067863;28;20540;-90
2022/08/24 12:07:25;;;;;;;2.97;2.15;;;;;;;31.67;41.20;99239.53;5069988;28;20033;-89
2022/08/24 12:10:29;;;;;;;3.42;2.08;;;;;;;31.91;42.24;99265.06;5051506;28;20035;-90
2022/08/24 12:13:04;;;;;;;;;;;;;;;31.49;42.52;99266.91;5048566;28;20506;-89